createdAt,value
2019-05-10T00:01:50.941Z,3.33
2019-05-10T00:04:14.163Z,4.40
2019-05-10T00:06:37.594Z,3.35
2019-05-10T00:08:44.858Z,3.10
2019-05-10T00:10:52.255Z,3.50
2019-05-10T00:13:22.148Z,3.08
2019-05-10T00:15:30.510Z,2.52
2019-05-10T00:17:37.311Z,2.62
2019-05-10T00:19:42.705Z,1.72
2019-05-10T00:21:48.086Z,1.90
2019-05-10T00:23:53.566Z,2.00
2019-05-10T00:25:58.964Z,2.40
2019-05-10T00:28:04.571Z,2.80
2019-05-10T00:30:10.542Z,2.40
2019-05-10T00:32:15.958Z,2.95
2019-05-10T00:34:21.400Z,2.42
2019-05-10T00:36:26.862Z,2.67
2019-05-10T00:38:32.310Z,2.50
2019-05-10T00:40:37.759Z,2.77
2019-05-10T00:42:43.155Z,2.52
2019-05-10T00:44:48.560Z,2.00
2019-05-10T00:46:53.940Z,1.90
2019-05-10T00:48:59.401Z,2.30
2019-05-10T00:51:04.893Z,2.00
2019-05-10T00:53:10.287Z,2.85
2019-05-10T00:55:18.771Z,2.40
2019-05-10T00:57:22.795Z,2.00
2019-05-10T00:59:28.251Z,2.25
2019-05-10T01:01:33.695Z,2.47
2019-05-10T01:03:39.083Z,2.15
2019-05-10T01:05:44.486Z,1.47
2019-05-10T01:07:49.906Z,1.75
2019-05-10T01:09:55.327Z,2.30
2019-05-10T01:12:00.879Z,1.62
2019-05-10T01:14:06.368Z,1.87
2019-05-10T01:16:11.743Z,1.87
2019-05-10T01:18:17.200Z,2.10
2019-05-10T01:20:22.669Z,1.95
2019-05-10T01:22:28.090Z,2.20
2019-05-10T01:24:33.567Z,1.80
2019-05-10T01:26:38.962Z,2.08
2019-05-10T01:28:44.428Z,2.08
2019-05-10T01:30:49.915Z,2.75
2019-05-10T01:32:55.398Z,2.35
2019-05-10T01:35:00.906Z,2.15
2019-05-10T01:37:06.406Z,2.30
2019-05-10T01:39:11.906Z,2.62
2019-05-10T01:41:17.307Z,3.05
2019-05-10T01:43:29.546Z,3.05
2019-05-10T01:45:34.978Z,3.08
2019-05-10T01:47:40.443Z,2.08
2019-05-10T01:49:45.937Z,3.33
2019-05-10T01:51:51.379Z,2.80
2019-05-10T01:53:56.814Z,2.47
2019-05-10T01:56:02.250Z,2.85
2019-05-10T01:58:07.620Z,2.20
2019-05-10T02:00:13.334Z,3.05
2019-05-10T02:02:18.721Z,2.65
2019-05-10T02:04:24.122Z,2.40
2019-05-10T02:06:29.561Z,2.72
2019-05-10T02:08:35.017Z,3.37
2019-05-10T02:10:40.958Z,3.25
2019-05-10T02:12:46.793Z,2.90
2019-05-10T02:14:53.119Z,2.58
2019-05-10T02:16:58.539Z,2.25
2019-05-10T02:19:03.927Z,2.35
2019-05-10T02:21:09.318Z,1.70
2019-05-10T02:23:14.741Z,2.17
2019-05-10T02:25:20.190Z,2.00
2019-05-10T02:27:25.636Z,2.45
2019-05-10T02:29:31.079Z,2.47
2019-05-10T02:31:36.475Z,2.55
2019-05-10T02:33:42.435Z,2.40
2019-05-10T02:35:47.961Z,2.90
2019-05-10T02:37:53.350Z,2.52
2019-05-10T02:39:58.813Z,2.70
2019-05-10T02:42:04.524Z,2.08
2019-05-10T02:44:09.999Z,2.83
2019-05-10T02:46:15.498Z,2.55
2019-05-10T02:48:20.988Z,1.92
2019-05-10T02:50:26.441Z,2.85
2019-05-10T02:52:31.844Z,2.40
2019-05-10T02:54:37.240Z,2.55
2019-05-10T02:56:42.974Z,3.00
2019-05-10T02:58:48.863Z,2.12
2019-05-10T03:00:55.639Z,2.95
2019-05-10T03:03:01.334Z,2.15
2019-05-10T03:05:08.535Z,2.33
2019-05-10T03:07:15.499Z,2.37
2019-05-10T03:09:23.962Z,2.50
2019-05-10T03:11:32.301Z,3.77
2019-05-10T03:13:38.085Z,2.50
2019-05-10T03:15:46.028Z,3.00
2019-05-10T03:17:53.008Z,2.35
2019-05-10T03:20:00.727Z,2.50
2019-05-10T03:22:07.288Z,1.90
2019-05-10T03:24:12.768Z,2.20
2019-05-10T03:26:18.389Z,2.12
2019-05-10T03:28:23.879Z,1.95
2019-05-10T03:30:29.293Z,2.30
2019-05-10T03:32:35.652Z,2.10
2019-05-10T03:34:41.156Z,2.33
2019-05-10T03:36:46.662Z,2.52
2019-05-10T03:38:52.116Z,2.00
2019-05-10T03:40:57.587Z,2.00
2019-05-10T03:43:03.083Z,2.00
2019-05-10T03:45:10.021Z,2.40
2019-05-10T03:47:15.488Z,2.12
2019-05-10T03:49:20.995Z,2.33
2019-05-10T03:51:26.515Z,2.25
2019-05-10T03:53:32.004Z,1.50
2019-05-10T03:55:37.431Z,4.12
2019-05-10T03:57:42.923Z,3.00
2019-05-10T03:59:48.368Z,2.90
2019-05-10T04:01:53.864Z,1.65
2019-05-10T04:03:59.299Z,2.00
2019-05-10T04:06:04.781Z,2.30
2019-05-10T04:08:10.187Z,2.00
2019-05-10T04:10:20.416Z,1.87
2019-05-10T04:12:23.219Z,1.72
2019-05-10T04:14:28.679Z,1.90
2019-05-10T04:16:34.068Z,2.25
2019-05-10T04:18:39.559Z,1.82
2019-05-10T04:20:45.051Z,1.70
2019-05-10T04:22:50.537Z,1.77
2019-05-10T04:24:55.954Z,2.42
2019-05-10T04:27:01.420Z,2.08
2019-05-10T04:29:06.922Z,1.85
2019-05-10T04:31:12.414Z,2.20
2019-05-10T04:33:18.244Z,2.00
2019-05-10T04:35:23.776Z,1.80
2019-05-10T04:37:29.151Z,1.80
2019-05-10T04:39:34.552Z,2.40
2019-05-10T04:41:39.951Z,2.10
2019-05-10T04:43:45.515Z,2.15
2019-05-10T04:45:50.920Z,1.90
2019-05-10T04:47:56.393Z,3.30
2019-05-10T04:50:01.947Z,3.10
2019-05-10T04:52:07.430Z,3.45
2019-05-10T04:54:12.847Z,2.58
2019-05-10T04:56:18.293Z,3.12
2019-05-10T04:58:23.947Z,2.42
2019-05-10T05:00:29.374Z,2.10
2019-05-10T05:02:34.844Z,2.55
2019-05-10T05:04:41.842Z,2.00
2019-05-10T05:06:47.326Z,1.90
2019-05-10T05:08:59.059Z,2.30
2019-05-10T05:11:04.546Z,2.12
2019-05-10T05:13:09.990Z,1.45
2019-05-10T05:15:16.867Z,2.22
2019-05-10T05:17:22.306Z,2.00
2019-05-10T05:19:27.752Z,1.30
2019-05-10T05:21:33.175Z,1.40
2019-05-10T05:23:38.556Z,1.35
2019-05-10T05:25:43.950Z,1.22
2019-05-10T05:28:05.321Z,1.50
2019-05-10T05:29:56.594Z,1.90
2019-05-10T05:32:03.626Z,1.17
2019-05-10T05:34:09.517Z,1.30
2019-05-10T05:36:14.962Z,1.20
2019-05-10T05:38:20.447Z,1.15
2019-05-10T05:40:25.955Z,2.15
2019-05-10T05:42:31.339Z,2.00
2019-05-10T05:44:36.770Z,1.60
2019-05-10T05:46:42.319Z,2.00
2019-05-10T05:48:51.182Z,1.40
2019-05-10T05:50:55.281Z,2.08
2019-05-10T05:53:00.754Z,1.70
2019-05-10T05:55:06.715Z,1.45
2019-05-10T05:57:13.362Z,1.47
2019-05-10T05:59:23.941Z,2.22
2019-05-10T06:01:29.267Z,1.60
2019-05-10T06:03:32.479Z,1.50
2019-05-10T06:05:37.639Z,1.77
2019-05-10T06:07:42.895Z,1.63
2019-05-10T06:09:48.094Z,1.80
2019-05-10T06:11:53.226Z,1.70
2019-05-10T06:14:03.705Z,1.50
2019-05-10T06:16:06.874Z,1.40
2019-05-10T06:18:12.297Z,1.47
2019-05-10T06:20:17.775Z,1.30
2019-05-10T06:22:22.888Z,1.30
2019-05-10T06:24:28.142Z,1.30
2019-05-10T06:26:33.340Z,1.10
2019-05-10T06:28:57.487Z,1.50
2019-05-10T06:30:45.563Z,1.10
2019-05-10T06:32:53.255Z,1.40
2019-05-10T06:34:57.663Z,1.20
2019-05-10T06:37:02.823Z,0.60
2019-05-10T06:39:08.358Z,0.83
2019-05-10T06:41:16.896Z,0.80
2019-05-10T06:43:20.398Z,0.70
2019-05-10T06:45:25.564Z,0.77
2019-05-10T06:47:30.751Z,0.60
2019-05-10T06:49:41.722Z,0.50
2019-05-10T06:51:48.672Z,0.50
2019-05-10T06:53:53.549Z,1.30
2019-05-10T06:55:56.530Z,0.83
2019-05-10T06:58:01.724Z,0.70
2019-05-10T07:00:08.108Z,0.50
2019-05-10T07:02:13.473Z,0.80
2019-05-10T07:04:18.674Z,0.47
2019-05-10T07:06:23.839Z,1.33
2019-05-10T07:08:43.390Z,0.60
2019-05-10T07:10:35.886Z,0.40
2019-05-10T07:12:41.054Z,0.40
2019-05-10T07:14:46.747Z,0.60
2019-05-10T07:16:56.612Z,0.60
2019-05-10T07:19:00.456Z,0.50
2019-05-10T07:21:08.754Z,0.43
2019-05-10T07:23:14.027Z,0.50
2019-05-10T07:25:19.190Z,0.40
2019-05-10T07:27:24.318Z,0.50
2019-05-10T07:29:30.490Z,0.60
2019-05-10T07:31:37.100Z,0.40
2019-05-10T07:33:42.323Z,0.50
2019-05-10T07:35:48.716Z,0.40
2019-05-10T07:37:54.151Z,0.50
2019-05-10T07:40:02.950Z,0.30
2019-05-10T07:42:07.164Z,0.30
2019-05-10T07:44:13.023Z,0.40
2019-05-10T07:46:18.173Z,0.50
2019-05-10T07:48:23.436Z,0.30
2019-05-10T07:50:28.600Z,0.40
2019-05-10T07:52:36.394Z,0.30
2019-05-10T07:54:45.261Z,0.57
2019-05-10T07:56:47.873Z,0.70
2019-05-10T07:58:53.279Z,0.83
2019-05-10T08:00:58.503Z,1.83
2019-05-10T08:03:15.195Z,1.53
2019-05-10T08:05:13.790Z,1.27
2019-05-10T08:07:18.593Z,1.13
2019-05-10T08:09:23.795Z,1.10
2019-05-10T08:11:28.963Z,1.30
2019-05-10T08:13:34.138Z,0.70
2019-05-10T08:15:39.343Z,1.37
2019-05-10T08:17:45.692Z,0.83
2019-05-10T08:19:51.576Z,1.07
2019-05-10T08:22:01.733Z,0.80
2019-05-10T08:24:07.210Z,1.20
2019-05-10T08:26:10.881Z,1.10
2019-05-10T08:28:17.246Z,1.20
2019-05-10T08:30:42.563Z,0.80
2019-05-10T08:32:43.469Z,1.30
2019-05-10T08:34:53.016Z,1.13
2019-05-10T08:36:55.507Z,1.43
2019-05-10T08:39:09.516Z,1.10
2019-05-10T08:41:14.780Z,0.70
2019-05-10T08:43:24.599Z,0.90
2019-05-10T08:45:29.859Z,0.70
2019-05-10T08:47:35.010Z,1.03
2019-05-10T08:49:52.243Z,1.03
2019-05-10T08:51:49.318Z,0.63
2019-05-10T08:53:58.155Z,0.60
2019-05-10T08:56:02.280Z,0.70
2019-05-10T09:00:45.695Z,0.90
2019-05-10T09:02:37.198Z,0.53
2019-05-10T09:04:48.682Z,0.50
2019-05-10T09:06:55.384Z,0.90
2019-05-10T09:09:01.710Z,0.50
2019-05-10T09:11:06.674Z,0.70
2019-05-10T09:13:09.638Z,0.70
2019-05-10T09:15:14.764Z,1.00
2019-05-10T09:17:23.699Z,0.50
2019-05-10T09:19:36.131Z,0.50
2019-05-10T09:21:33.566Z,0.37
2019-05-10T09:23:38.703Z,0.60
2019-05-10T09:25:43.823Z,0.70
2019-05-10T09:27:48.982Z,0.70
2019-05-10T09:29:54.102Z,0.60
2019-05-10T09:32:01.281Z,0.60
2019-05-10T09:34:12.119Z,0.50
2019-05-10T09:36:16.659Z,0.60
2019-05-10T09:38:22.225Z,0.53
2019-05-10T09:40:27.638Z,1.00
2019-05-10T09:42:39.793Z,0.70
2019-05-10T09:44:39.607Z,1.00
2019-05-10T09:46:44.736Z,0.60
2019-05-10T09:48:54.786Z,0.63
2019-05-10T09:51:00.625Z,1.03
2019-05-10T09:53:03.520Z,0.50
2019-05-10T09:55:10.232Z,0.60
2019-05-10T09:57:17.394Z,0.50
2019-05-10T09:59:22.467Z,0.90
2019-05-10T10:01:28.195Z,0.70
2019-05-10T10:03:39.745Z,0.80
2019-05-10T10:05:40.506Z,0.60
2019-05-10T10:07:48.014Z,0.50
2019-05-10T10:09:52.455Z,0.50
2019-05-10T10:12:02.712Z,0.40
2019-05-10T10:14:04.514Z,0.40
2019-05-10T10:16:14.562Z,0.50
2019-05-10T10:18:21.324Z,0.50
2019-05-10T10:20:23.378Z,0.40
2019-05-10T10:22:28.519Z,0.60
2019-05-10T10:24:33.646Z,0.70
2019-05-10T10:26:38.782Z,0.50
2019-05-10T10:28:44.011Z,0.50
2019-05-10T10:30:50.503Z,0.60
2019-05-10T10:32:58.039Z,0.60
2019-05-10T10:35:02.902Z,0.40
2019-05-10T10:37:08.137Z,0.60
2019-05-10T10:39:13.370Z,1.63
2019-05-10T10:41:25.960Z,0.50
2019-05-10T10:43:27.240Z,0.50
2019-05-10T10:45:32.260Z,0.60
2019-05-10T10:47:38.048Z,0.50
2019-05-10T10:49:43.523Z,0.43
2019-05-10T10:51:48.721Z,0.80
2019-05-10T10:53:54.826Z,0.53
2019-05-10T10:56:03.767Z,0.70
2019-05-10T10:58:07.638Z,0.60
2019-05-10T11:00:13.230Z,0.60
2019-05-10T11:02:32.565Z,0.70
2019-05-10T11:04:25.220Z,0.60
2019-05-10T11:06:30.341Z,0.60
2019-05-10T11:08:35.464Z,0.63
2019-05-10T11:10:42.747Z,0.80
2019-05-10T11:12:47.507Z,0.60
2019-05-10T11:14:52.651Z,0.90
2019-05-10T11:16:57.812Z,0.77
2019-05-10T11:19:03.764Z,0.60
2019-05-10T11:21:11.286Z,0.63
2019-05-10T11:23:16.501Z,0.87
2019-05-10T11:25:21.616Z,0.70
2019-05-10T11:27:26.782Z,0.70
2019-05-10T11:29:31.939Z,0.60
2019-05-10T11:31:37.062Z,0.60
2019-05-10T11:33:47.368Z,0.67
2019-05-10T11:35:51.205Z,1.17
2019-05-10T11:37:55.919Z,0.50
2019-05-10T11:40:01.746Z,0.50
2019-05-10T11:42:07.552Z,0.80
2019-05-10T11:44:12.790Z,0.70
2019-05-10T11:46:20.845Z,0.57
2019-05-10T11:48:28.961Z,0.90
2019-05-10T11:50:35.342Z,0.90
2019-05-10T11:52:40.750Z,0.70
2019-05-10T11:54:45.382Z,0.80
2019-05-10T11:56:52.216Z,0.70
2019-05-10T11:58:57.474Z,0.50
2019-05-10T12:01:13.610Z,0.50
2019-05-10T12:03:15.057Z,0.73
2019-05-10T12:05:20.407Z,0.60
2019-05-10T12:07:33.984Z,0.53
2019-05-10T12:09:31.552Z,0.60
2019-05-10T12:11:43.756Z,0.70
2019-05-10T12:13:43.838Z,0.50
2019-05-10T12:15:51.747Z,0.70
2019-05-10T12:20:03.159Z,0.60
2019-05-10T12:22:08.287Z,0.80
2019-05-10T12:24:32.558Z,0.40
2019-05-10T12:26:27.770Z,0.50
2019-05-10T12:28:29.021Z,0.60
2019-05-10T12:30:34.769Z,0.70
2019-05-10T12:32:55.018Z,0.77
2019-05-10T12:34:51.859Z,0.60
2019-05-10T12:36:57.472Z,0.60
2019-05-10T12:39:01.864Z,0.50
2019-05-10T12:41:07.219Z,0.60
2019-05-10T12:43:12.367Z,0.80
2019-05-10T12:45:17.795Z,0.70
2019-05-10T12:47:22.932Z,0.70
2019-05-10T12:49:28.087Z,1.27
2019-05-10T12:51:33.210Z,0.60
2019-05-10T12:53:44.402Z,0.70
2019-05-10T12:55:45.322Z,0.63
2019-05-10T12:57:50.479Z,0.70
2019-05-10T12:59:55.618Z,0.50
2019-05-10T13:02:04.613Z,0.68
2019-05-10T13:04:14.682Z,0.70
2019-05-10T13:06:15.244Z,0.60
2019-05-10T13:08:20.754Z,0.65
2019-05-10T13:10:26.250Z,0.62
2019-05-10T13:12:36.936Z,0.65
2019-05-10T13:14:40.201Z,0.40
2019-05-10T13:16:45.943Z,0.50
2019-05-10T13:18:53.690Z,0.60
2019-05-10T13:20:59.075Z,0.55
2019-05-10T13:23:04.483Z,0.65
2019-05-10T13:25:10.696Z,0.60
2019-05-10T13:27:16.131Z,0.50
2019-05-10T13:29:21.303Z,0.73
2019-05-10T13:31:26.487Z,0.60
2019-05-10T13:33:40.666Z,0.80
2019-05-10T13:35:38.572Z,0.60
2019-05-10T13:37:43.787Z,0.70
2019-05-10T13:39:48.914Z,0.77
2019-05-10T13:41:57.017Z,0.80
2019-05-10T13:44:05.033Z,0.60
2019-05-10T13:46:09.853Z,0.57
2019-05-10T13:48:15.000Z,0.67
2019-05-10T13:50:20.135Z,0.60
2019-05-10T13:52:29.658Z,0.50
2019-05-10T13:54:36.163Z,0.53
2019-05-10T13:56:45.299Z,0.90
2019-05-10T13:58:45.786Z,0.60
2019-05-10T14:00:50.965Z,0.60
2019-05-10T14:02:56.177Z,0.60
2019-05-10T14:05:11.982Z,0.60
2019-05-10T14:07:14.389Z,0.80
2019-05-10T14:09:20.993Z,0.60
2019-05-10T14:11:26.410Z,1.00
2019-05-10T14:13:35.685Z,0.60
2019-05-10T14:15:38.410Z,0.70
2019-05-10T14:17:43.574Z,1.10
2019-05-10T14:19:48.714Z,0.50
2019-05-10T14:21:53.860Z,0.57
2019-05-10T14:23:59.074Z,0.70
2019-05-10T14:26:09.498Z,0.50
2019-05-10T14:28:15.836Z,0.60
2019-05-10T14:30:18.273Z,0.70
2019-05-10T14:32:23.470Z,1.13
2019-05-10T14:34:28.611Z,1.60
2019-05-10T14:36:34.040Z,0.73
2019-05-10T14:38:40.568Z,0.97
2019-05-10T14:40:45.685Z,0.80
2019-05-10T14:42:50.822Z,0.77
2019-05-10T14:44:55.963Z,0.70
2019-05-10T14:47:01.146Z,0.90
2019-05-10T14:49:09.765Z,0.70
2019-05-10T14:51:13.976Z,1.07
2019-05-10T14:53:19.911Z,0.80
2019-05-10T14:55:27.977Z,1.10
2019-05-10T14:57:33.087Z,1.00
2019-05-10T14:59:38.211Z,0.90
2019-05-10T15:01:45.460Z,1.20
2019-05-10T15:03:50.223Z,0.80
2019-05-10T15:06:00.963Z,0.60
2019-05-10T15:08:02.218Z,0.70
2019-05-10T15:10:07.574Z,0.80
2019-05-10T15:12:16.362Z,0.63
2019-05-10T15:14:19.599Z,0.80
2019-05-10T15:16:27.088Z,0.80
2019-05-10T15:18:31.618Z,0.70
2019-05-10T15:20:36.752Z,0.97
2019-05-10T15:22:41.875Z,0.80
2019-05-10T15:24:47.041Z,1.10
2019-05-10T15:26:52.166Z,0.77
2019-05-10T15:28:57.419Z,1.07
2019-05-10T15:31:02.578Z,0.70
2019-05-10T15:33:07.714Z,0.60
2019-05-10T15:35:12.922Z,0.50
2019-05-10T15:37:18.110Z,0.57
2019-05-10T15:39:28.543Z,0.70
2019-05-10T15:41:30.125Z,0.70
2019-05-10T15:43:35.255Z,0.50
2019-05-10T15:45:40.434Z,0.60
2019-05-10T15:47:51.429Z,0.60
2019-05-10T15:49:54.610Z,0.60
2019-05-10T15:52:16.248Z,0.83
2019-05-10T15:54:07.499Z,0.80
2019-05-10T15:56:13.276Z,0.78
2019-05-10T15:58:18.818Z,1.17
2019-05-10T16:00:25.673Z,0.78
2019-05-10T16:02:32.006Z,1.05
2019-05-10T16:04:37.205Z,1.00
2019-05-10T16:06:42.653Z,0.90
2019-05-10T16:08:47.892Z,0.80
2019-05-10T16:10:53.438Z,0.88
2019-05-10T16:12:59.682Z,1.07
2019-05-10T16:15:19.545Z,1.00
2019-05-10T16:17:23.751Z,1.00
2019-05-10T16:19:27.922Z,1.10
2019-05-10T16:21:33.437Z,0.82
2019-05-10T16:23:41.489Z,0.80
2019-05-10T16:25:48.550Z,0.80
2019-05-10T16:27:53.310Z,1.00
2019-05-10T16:29:58.860Z,0.98
2019-05-10T16:32:04.650Z,0.90
2019-05-10T16:34:13.114Z,0.80
2019-05-10T16:36:23.156Z,0.93
2019-05-10T16:38:25.839Z,1.20
2019-05-10T16:40:31.239Z,1.32
2019-05-10T16:42:36.696Z,1.15
2019-05-10T16:44:42.090Z,1.02
2019-05-10T16:46:47.526Z,1.05
2019-05-10T16:48:52.967Z,0.98
2019-05-10T16:50:58.446Z,1.40
2019-05-10T16:53:05.652Z,0.72
2019-05-10T16:55:11.291Z,1.35
2019-05-10T16:57:18.519Z,1.27
2019-05-10T16:59:24.332Z,1.20
2019-05-10T17:01:33.527Z,1.17
2019-05-10T17:03:37.959Z,0.90
2019-05-10T17:05:52.956Z,0.60
2019-05-10T17:07:53.555Z,1.10
2019-05-10T17:09:57.599Z,1.05
2019-05-10T17:12:03.050Z,1.12
2019-05-10T17:14:12.714Z,1.05
2019-05-10T17:16:16.930Z,1.25
2019-05-10T17:18:24.174Z,1.10
2019-05-10T17:20:29.855Z,1.20
2019-05-10T17:22:35.313Z,1.30
2019-05-10T17:24:40.894Z,1.22
2019-05-10T17:26:46.298Z,1.22
2019-05-10T17:28:51.702Z,1.15
2019-05-10T17:30:59.951Z,0.90
2019-05-10T17:33:06.012Z,2.00
2019-05-10T17:35:11.351Z,1.57
2019-05-10T17:37:16.886Z,1.70
2019-05-10T17:39:26.030Z,1.90
2019-05-10T17:41:29.398Z,1.40
2019-05-10T17:43:34.797Z,1.40
2019-05-10T17:45:42.447Z,1.50
2019-05-10T17:47:48.383Z,1.65
2019-05-10T17:49:54.184Z,1.57
2019-05-10T17:51:59.689Z,1.45
2019-05-10T17:54:05.373Z,1.52
2019-05-10T17:56:10.993Z,1.30
2019-05-10T17:58:17.213Z,1.45
2019-05-10T18:00:29.464Z,1.55
2019-05-10T18:02:47.952Z,2.25
2019-05-10T18:04:46.139Z,1.30
2019-05-10T18:06:51.547Z,1.45
2019-05-10T18:09:08.278Z,1.10
2019-05-10T18:11:14.119Z,1.90
2019-05-10T18:13:19.582Z,2.22
2019-05-10T18:15:27.665Z,1.55
2019-05-10T18:17:32.568Z,1.72
2019-05-10T18:19:38.360Z,1.20
2019-05-10T18:21:43.850Z,1.70
2019-05-10T18:54:10.381Z,2.12
2019-05-10T18:56:16.062Z,2.52
2019-05-10T18:58:23.391Z,2.05
2019-05-10T19:00:29.371Z,1.20
2019-05-10T19:02:34.829Z,1.45
2019-05-10T19:04:40.278Z,1.12
2019-05-10T19:06:50.031Z,1.30
2019-05-10T19:08:52.774Z,1.42
2019-05-10T19:10:58.159Z,1.30
2019-05-10T19:13:05.302Z,1.07
2019-05-10T19:15:15.268Z,1.32
2019-05-10T19:17:18.180Z,1.60
2019-05-10T19:19:23.595Z,1.17
2019-05-10T19:21:30.752Z,1.20
2019-05-10T19:23:36.106Z,0.98
2019-05-10T19:25:45.707Z,1.60
2019-05-10T19:27:50.792Z,1.10
2019-05-10T19:29:55.728Z,1.37
2019-05-10T19:32:01.155Z,1.12
2019-05-10T19:34:09.008Z,1.52
2019-05-10T19:36:14.718Z,1.15
2019-05-10T19:38:20.400Z,1.02
2019-05-10T19:40:25.778Z,1.37
2019-05-10T19:42:31.868Z,1.57
2019-05-10T19:44:40.328Z,1.05
2019-05-10T19:46:44.754Z,1.45
2019-05-10T19:48:50.197Z,1.10
2019-05-10T19:50:55.671Z,1.37
2019-05-10T19:53:03.921Z,1.17
2019-05-10T19:55:12.935Z,0.98
2019-05-10T19:57:18.584Z,1.32
2019-05-10T19:59:22.955Z,1.50
2019-05-10T20:01:28.356Z,1.40
2019-05-10T20:03:33.853Z,1.55
2019-05-10T20:05:39.326Z,1.35
2019-05-10T20:07:46.488Z,1.35
2019-05-10T20:09:51.827Z,1.57
2019-05-10T20:11:57.212Z,1.50
2019-05-10T20:14:02.643Z,1.35
2019-05-10T20:16:08.070Z,1.07
2019-05-10T20:18:13.559Z,1.20
2019-05-10T20:20:19.070Z,1.40
2019-05-10T20:22:24.450Z,1.25
2019-05-10T20:24:29.843Z,1.20
2019-05-10T20:26:35.253Z,1.35
2019-05-10T20:28:40.731Z,1.57
2019-05-10T20:30:46.167Z,1.27
2019-05-10T20:32:51.622Z,1.72
2019-05-10T20:34:57.234Z,1.52
2019-05-10T20:37:02.647Z,1.10
2019-05-10T20:39:08.102Z,1.60
2019-05-10T20:41:13.687Z,1.07
2019-05-10T20:43:19.126Z,1.60
2019-05-10T20:45:24.516Z,1.32
2019-05-10T20:47:30.178Z,1.37
2019-05-10T20:49:35.563Z,1.65
2019-05-10T20:51:41.164Z,1.17
2019-05-10T20:53:48.214Z,1.32
2019-05-10T20:55:53.792Z,1.25
2019-05-10T20:57:59.275Z,1.98
2019-05-10T21:00:05.127Z,2.72
2019-05-10T21:02:10.663Z,2.92
2019-05-10T21:04:17.815Z,3.37
2019-05-10T21:06:23.488Z,4.00
2019-05-10T21:08:28.879Z,3.05
2019-05-10T21:10:34.374Z,2.67
2019-05-10T21:12:39.758Z,2.65
2019-05-10T21:14:45.992Z,3.37
2019-05-10T21:16:51.594Z,2.95
2019-05-10T21:18:57.098Z,3.30
2019-05-10T21:21:02.816Z,3.12
2019-05-10T21:23:08.280Z,4.30
2019-05-10T21:25:13.923Z,3.50
2019-05-10T21:27:19.331Z,3.90
2019-05-10T21:29:24.725Z,3.40
2019-05-10T21:31:30.319Z,3.15
2019-05-10T21:33:35.770Z,3.60
2019-05-10T21:35:41.251Z,3.37
2019-05-10T21:37:46.635Z,3.40
2019-05-10T21:39:52.707Z,3.45
2019-05-10T21:41:58.187Z,3.45
2019-05-10T21:44:03.774Z,3.52
2019-05-10T21:46:09.296Z,3.00
2019-05-10T21:48:14.758Z,4.25
2019-05-10T21:50:20.252Z,3.65
2019-05-10T21:52:25.769Z,3.62
2019-05-10T21:54:31.194Z,3.00
2019-05-10T21:56:37.343Z,1.82
2019-05-10T21:58:43.202Z,2.50
2019-05-10T22:00:51.553Z,2.50
2019-05-10T22:02:56.978Z,1.92
2019-05-10T22:05:02.655Z,2.50
2019-05-10T22:07:08.042Z,2.50
2019-05-10T22:09:13.435Z,1.80
2019-05-10T22:11:18.814Z,2.80
2019-05-10T22:13:24.252Z,3.05
2019-05-10T22:15:29.726Z,3.33
2019-05-10T22:17:35.143Z,3.85
2019-05-10T22:19:40.574Z,3.60
2019-05-10T22:21:45.947Z,3.92
2019-05-10T22:23:51.358Z,3.10
2019-05-10T22:25:56.834Z,5.17
2019-05-10T22:28:02.307Z,4.80
2019-05-10T22:30:11.774Z,5.62
2019-05-10T22:32:15.151Z,5.45
2019-05-10T22:34:20.601Z,5.10
2019-05-10T22:36:25.983Z,5.05
2019-05-10T22:38:31.402Z,5.85
2019-05-10T22:40:36.824Z,4.30
2019-05-10T22:42:42.251Z,4.60
2019-05-10T22:44:47.634Z,4.30
2019-05-10T22:46:53.061Z,7.17
2019-05-10T22:48:58.482Z,4.08
2019-05-10T22:51:03.946Z,4.15
2019-05-10T22:53:09.358Z,4.15
2019-05-10T22:55:14.958Z,4.60
2019-05-10T22:57:20.359Z,3.47
2019-05-10T22:59:25.787Z,3.72
2019-05-10T23:01:31.211Z,3.15
2019-05-10T23:03:36.609Z,3.72
2019-05-10T23:05:42.007Z,2.98
2019-05-10T23:07:47.490Z,3.95
2019-05-10T23:09:52.882Z,3.27
2019-05-10T23:11:58.278Z,3.47
2019-05-10T23:14:03.770Z,3.30
2019-05-10T23:16:09.243Z,3.02
2019-05-10T23:18:14.634Z,3.42
2019-05-10T23:20:20.037Z,4.20
2019-05-10T23:22:25.419Z,2.80
2019-05-10T23:24:38.699Z,2.20
2019-05-10T23:26:44.174Z,2.85
2019-05-10T23:28:49.568Z,3.50
2019-05-10T23:30:54.986Z,3.45
2019-05-10T23:33:00.392Z,3.30
2019-05-10T23:35:05.971Z,2.55
2019-05-10T23:37:11.432Z,2.65
2019-05-10T23:39:16.810Z,2.60
2019-05-10T23:41:22.218Z,2.77
2019-05-10T23:43:27.627Z,2.25
2019-05-10T23:45:33.014Z,2.52
2019-05-10T23:47:38.458Z,2.25
2019-05-10T23:49:43.927Z,2.30
2019-05-10T23:51:49.343Z,2.12
2019-05-10T23:53:54.761Z,2.17
2019-05-10T23:56:00.187Z,2.65
2019-05-10T23:58:05.571Z,1.77
